Time;durP1;ratioP1;P1;durP2;ratioP2;P2;SDS_P1;SDS_P2;PMS_P1;PMS_P2;Temp;Humidity;BMP_temperature;BMP_pressure;BME280_temperature;BME280_humidity;BME280_pressure;Samples;Min_cycle;Max_cycle;Signal;HPM_P1;HPM_P2
2023/02/03 00:01:50;;;;;;;;;;;;;;;3.59;100.00;97784.03;5071727;28;19945;-72
2023/02/03 00:04:16;;;;;;;;;;;;;;;3.60;100.00;97785.66;5073264;28;19953;-73
2023/02/03 00:06:42;;;;;;;;;;;;;;;3.59;100.00;97789.22;5072953;28;19971;-73
2023/02/03 00:09:08;;;;;;;;;;;;;;;3.60;100.00;97790.03;5072712;28;20444;-73
2023/02/03 00:11:34;;;;;;;;;;;;;;;3.59;100.00;97781.44;5072021;28;20400;-73
2023/02/03 00:14:00;;;;;;;;;;;;;;;3.58;100.00;97784.19;5072940;28;20008;-73
2023/02/03 00:16:26;;;;;;;;;;;;;;;3.58;100.00;97784.19;5072792;28;19954;-74
2023/02/03 00:18:52;;;;;;;;;;;;;;;3.58;100.00;97789.38;5076371;28;19950;-73
2023/02/03 00:21:18;;;;;;;;;;;;;;;3.57;100.00;97785.97;5076479;28;19958;-73
2023/02/03 00:23:43;;;;;;;;;;;;;;;3.57;100.00;97774.75;5076379;28;19980;-74
2023/02/03 00:26:11;;;;;;;;;;;;;;;3.57;100.00;97774.75;5077225;28;19958;-73
2023/02/03 00:28:36;;;;;;;;;;;;;;;3.57;100.00;97788.56;5076719;28;19962;-73
2023/02/03 00:31:02;;;;;;;;;;;;;;;3.58;100.00;97789.38;5076435;28;20413;-73
2023/02/03 00:33:28;;;;;;;;;;;;;;;3.56;100.00;97781.72;5076788;28;19948;-73
2023/02/03 00:35:54;;;;;;;;;;;;;;;3.53;100.00;97788.94;5076496;28;20313;-73
2023/02/03 00:38:20;;;;;;;;;;;;;;;3.52;100.00;97782.16;5076462;28;19957;-73
2023/02/03 00:40:52;;;;;;;;;;;;;;;3.50;100.00;97778.88;5076306;28;19955;-73
2023/02/03 00:43:18;;;;;;;;;;;;;;;3.51;100.00;97772.72;5076312;28;20008;-73
2023/02/03 00:45:44;;;;;;;;;;;;;;;3.52;100.00;97777.78;5076295;28;19955;-73
2023/02/03 00:48:10;;;;;;;;;;;;;;;3.53;100.00;97778.59;5076298;28;19954;-73
2023/02/03 00:50:36;;;;;;;;;;;;;;;3.53;100.00;97771.63;5076141;28;19980;-72
2023/02/03 00:53:02;;;;;;;;;;;;;;;3.54;100.00;97770.66;5076002;28;20008;-73
2023/02/03 00:55:28;;;;;;;;;;;;;;;3.49;100.00;97783.25;5076278;28;19950;-73
2023/02/03 00:57:54;;;;;;;;;;;;;;;3.46;100.00;97780.91;5074872;28;20416;-73
2023/02/03 01:00:19;;;;;;;;;;;;;;;3.45;100.00;97780.09;5076578;28;19952;-73
2023/02/03 01:02:45;;;;;;;;;;;;;;;3.44;100.00;97781.09;5076235;28;19952;-75
2023/02/03 01:05:11;;;;;;;;;;;;;;;3.44;100.00;97777.66;5075967;28;19954;-73
2023/02/03 01:07:37;;;;;;;;;;;;;;;3.44;100.00;97778.50;5075853;28;19974;-73
2023/02/03 01:10:04;;;;;;;;;;;;;;;3.48;100.00;97773.81;5075536;28;20440;-73
2023/02/03 01:12:30;;;;;;;;;;;;;;;3.50;100.00;97787.47;5075595;28;19955;-73
2023/02/03 01:14:57;;;;;;;;;;;;;;;3.53;100.00;97783.75;5074427;28;19945;-73
2023/02/03 01:17:23;;;;;;;;;;;;;;;3.55;100.00;97787.03;5075698;28;19965;-73
2023/02/03 01:19:49;;;;;;;;;;;;;;;3.54;100.00;97782.81;5075665;28;19948;-73
2023/02/03 01:22:15;;;;;;;;;;;;;;;3.54;100.00;97788.00;5075553;28;19969;-73
2023/02/03 01:24:41;;;;;;;;;;;;;;;3.55;100.00;97784.44;5076155;28;19953;-73
2023/02/03 01:27:07;;;;;;;;;;;;;;;3.53;100.00;97778.59;5075400;28;20360;-73
2023/02/03 01:29:33;;;;;;;;;;;;;;;3.53;100.00;97763.00;5075503;28;20319;-73
2023/02/03 01:31:59;;;;;;;;;;;;;;;3.53;100.00;97747.44;5075267;28;19950;-74
2023/02/03 01:34:25;;;;;;;;;;;;;;;3.53;100.00;97742.28;5075306;28;20307;-73
2023/02/03 01:36:51;;;;;;;;;;;;;;;3.53;100.00;97742.28;5074823;28;19991;-73
2023/02/03 01:39:17;;;;;;;;;;;;;;;3.52;100.00;97744.06;5075110;28;19951;-73
2023/02/03 01:41:43;;;;;;;;;;;;;;;3.51;100.00;97751.97;5074561;28;19960;-74
2023/02/03 01:44:27;;;;;;;;;;;;;;;3.50;100.00;97760.72;5075139;28;19960;-73
2023/02/03 01:46:53;;;;;;;;;;;;;;;3.50;100.00;97763.31;5074962;28;20272;-73
2023/02/03 01:49:26;;;;;;;;;;;;;;;3.50;100.00;97748.56;5074648;28;20004;-75
2023/02/03 01:51:52;;;;;;;;;;;;;;;3.52;100.00;97725.09;5067315;28;19955;-73
2023/02/03 01:54:22;;;;;;;;;;;;;;;3.50;100.00;97730.41;5073794;28;19951;-73
2023/02/03 01:56:53;;;;;;;;;;;;;;;3.50;100.00;97716.63;5074463;28;19945;-73
2023/02/03 01:59:20;;;;;;;;;;;;;;;3.53;100.00;97730.13;5074877;28;19952;-72
2023/02/03 02:01:46;;;;;;;;;;;;;;;3.55;100.00;97737.75;5074473;28;19957;-73
2023/02/03 02:04:13;;;;;;;;;;;;;;;3.58;100.00;97734.91;5074487;28;20327;-73
2023/02/03 02:06:38;;;;;;;;;;;;;;;3.60;100.00;97745.94;5074460;28;19954;-73
2023/02/03 02:09:05;;;;;;;;;;;;;;;3.63;100.00;97743.06;5074692;28;19946;-73
2023/02/03 02:11:30;;;;;;;;;;;;;;;3.65;100.00;97741.13;5074476;28;20420;-73
2023/02/03 02:13:59;;;;;;;;;;;;;;;3.66;100.00;97740.19;5074244;28;20003;-73
2023/02/03 02:16:24;;;;;;;;;;;;;;;3.66;100.00;97733.22;5074122;28;19951;-73
2023/02/03 02:19:09;;;;;;;;;;;;;;;3.67;100.00;97713.28;5074576;28;19970;-73
2023/02/03 02:21:47;;;;;;;;;;;;;;;3.69;100.00;97711.34;5074902;28;20446;-73
2023/02/03 02:24:13;;;;;;;;;;;;;;;3.68;100.00;97693.38;5063915;28;19953;-73
2023/02/03 02:26:42;;;;;;;;;;;;;;;3.66;100.00;97689.13;5074084;28;19950;-73
2023/02/03 02:29:11;;;;;;;;;;;;;;;3.69;100.00;97669.03;5061019;28;19945;-73
2023/02/03 02:31:58;;;;;;;;;;;;;;;3.67;100.00;97658.78;5074218;28;19954;-73
2023/02/03 02:34:39;;;;;;;;;;;;;;;3.68;100.00;97665.63;5073844;28;19945;-73
2023/02/03 02:37:10;;;;;;;;;;;;;;;3.66;100.00;97673.56;5073886;28;19942;-73
2023/02/03 02:39:35;;;;;;;;;;;;;;;3.64;100.00;97688.44;5074026;28;19952;-72
2023/02/03 02:42:14;;;;;;;;;;;;;;;3.66;100.00;97685.72;5074122;28;19971;-73
2023/02/03 02:45:00;;;;;;;;;;;;;;;3.65;100.00;97669.34;5074225;28;19957;-74
2023/02/03 02:47:26;;;;;;;;;;;;;;;3.66;100.00;97664.97;5067665;28;19953;-73
2023/02/03 02:49:57;;;;;;;;;;;;;;;3.63;100.00;97666.06;5073156;28;21844;-73
2023/02/03 02:52:25;;;;;;;;;;;;;;;3.62;100.00;97658.44;5073809;28;19958;-73
2023/02/03 02:54:53;;;;;;;;;;;;;;;3.61;100.00;97655.03;5073909;28;20002;-73
2023/02/03 02:57:21;;;;;;;;;;;;;;;3.62;100.00;97645.44;5073632;28;20408;-74
2023/02/03 02:59:47;;;;;;;;;;;;;;;3.59;100.00;97643.97;5073793;28;19976;-73
2023/02/03 03:02:13;;;;;;;;;;;;;;;3.56;100.00;97633.88;5073905;28;20408;-73
2023/02/03 03:04:40;;;;;;;;;;;;;;;3.56;100.00;97635.66;5073643;28;19953;-73
2023/02/03 03:07:09;;;;;;;;;;;;;;;3.50;100.00;97644.00;5073661;28;19950;-74
2023/02/03 03:09:39;;;;;;;;;;;;;;;3.48;100.00;97640.75;5058291;28;19951;-72
2023/02/03 03:12:17;;;;;;;;;;;;;;;3.48;100.00;97664.09;5073739;28;19960;-73
2023/02/03 03:14:47;;;;;;;;;;;;;;;3.47;100.00;97675.44;5073719;28;19968;-73
2023/02/03 03:17:16;;;;;;;;;;;;;;;3.48;100.00;97669.28;5073375;28;19942;-73
2023/02/03 03:19:45;;;;;;;;;;;;;;;3.48;100.00;97671.88;5074112;28;19955;-73
2023/02/03 03:22:13;;;;;;;;;;;;;;;3.49;100.00;97660.53;5073509;28;19955;-74
2023/02/03 03:24:46;;;;;;;;;;;;;;;3.50;100.00;97654.38;5073527;28;19952;-72
2023/02/03 03:27:15;;;;;;;;;;;;;;;3.51;100.00;97638.69;5072754;28;19949;-74
2023/02/03 03:29:47;;;;;;;;;;;;;;;3.49;100.00;97643.19;5073730;28;19944;-73
2023/02/03 03:32:12;;;;;;;;;;;;;;;3.52;100.00;97631.72;5073320;28;19950;-73
2023/02/03 03:34:39;;;;;;;;;;;;;;;3.52;100.00;97629.94;5073671;28;20032;-72
2023/02/03 03:37:17;;;;;;;;;;;;;;;3.53;100.00;97641.13;5073234;28;19948;-72
2023/02/03 03:39:51;;;;;;;;;;;;;;;3.53;100.00;97639.34;5073578;28;19947;-74
2023/02/03 03:42:36;;;;;;;;;;;;;;;3.53;100.00;97649.72;5059367;28;19979;-73
2023/02/03 03:45:01;;;;;;;;;;;;;;;3.53;100.00;97660.09;5073542;28;19949;-72
2023/02/03 03:47:27;;;;;;;;;;;;;;;3.54;100.00;97679.88;5073444;28;19953;-72
2023/02/03 03:49:54;;;;;;;;;;;;;;;3.55;100.00;97683.28;5073261;28;20394;-73
2023/02/03 03:52:26;;;;;;;;;;;;;;;3.54;100.00;97687.66;5074147;28;19958;-73
2023/02/03 03:54:53;;;;;;;;;;;;;;;3.56;100.00;97688.34;5077751;28;19970;-73
2023/02/03 03:57:25;;;;;;;;;;;;;;;3.56;100.00;97682.34;5077292;28;20401;-74
2023/02/03 03:59:52;;;;;;;;;;;;;;;3.56;100.00;97698.72;5077176;28;19970;-73
2023/02/03 04:02:19;;;;;;;;;;;;;;;3.56;100.00;97705.69;5077236;28;19947;-73
2023/02/03 04:04:47;;;;;;;;;;;;;;;3.56;100.00;97705.69;5077005;28;19946;-73
2023/02/03 04:07:13;;;;;;;;;;;;;;;3.56;100.00;97703.91;5077046;28;19950;-73
2023/02/03 04:09:41;;;;;;;;;;;;;;;3.57;100.00;97704.72;5077078;28;19956;-73
2023/02/03 04:12:23;;;;;;;;;;;;;;;3.56;100.00;97705.69;5076749;28;19960;-73
2023/02/03 04:14:49;;;;;;;;;;;;;;;3.57;100.00;97726.31;5076873;28;19947;-73
2023/02/03 04:17:14;;;;;;;;;;;;;;;3.56;100.00;97716.88;5076672;28;19955;-73
2023/02/03 04:19:40;;;;;;;;;;;;;;;3.56;100.00;97722.06;5076964;28;19999;-73
2023/02/03 04:22:06;;;;;;;;;;;;;;;3.57;100.00;97718.53;5076706;28;19997;-73
2023/02/03 04:24:32;;;;;;;;;;;;;;;3.57;100.00;97715.94;5076698;28;20357;-72
2023/02/03 04:26:58;;;;;;;;;;;;;;;3.57;100.00;97708.16;5076739;28;20301;-73
2023/02/03 04:29:24;;;;;;;;;;;;;;;3.59;100.00;97710.56;5076560;28;19950;-74
2023/02/03 04:31:49;;;;;;;;;;;;;;;3.61;100.00;97716.44;5076569;28;19952;-73
2023/02/03 04:34:15;;;;;;;;;;;;;;;3.61;100.00;97724.22;5076677;28;19951;-74
2023/02/03 04:36:41;;;;;;;;;;;;;;;3.61;100.00;97724.22;5076553;28;19953;-73
2023/02/03 04:39:07;;;;;;;;;;;;;;;3.61;100.00;97724.22;5076479;28;19970;-73
2023/02/03 04:41:33;;;;;;;;;;;;;;;3.61;100.00;97716.44;5076188;28;19958;-73
2023/02/03 04:43:59;;;;;;;;;;;;;;;3.61;100.00;97704.31;5076292;28;20000;-76
2023/02/03 04:46:25;;;;;;;;;;;;;;;3.62;100.00;97700.75;5076101;28;19957;-73
2023/02/03 04:48:51;;;;;;;;;;;;;;;3.63;100.00;97701.56;5076442;28;19951;-73
2023/02/03 04:51:16;;;;;;;;;;;;;;;3.63;100.00;97696.34;5076026;28;20035;-73
2023/02/03 04:53:42;;;;;;;;;;;;;;;3.62;100.00;97697.34;5075892;28;19997;-73
2023/02/03 04:56:08;;;;;;;;;;;;;;;3.62;100.00;97687.78;5076355;28;19955;-73
2023/02/03 04:58:35;;;;;;;;;;;;;;;3.63;100.00;97683.38;5108459;28;20008;-73
2023/02/03 05:01:05;;;;;;;;;;;;;;;3.64;100.00;97675.47;5060963;28;19960;-73
2023/02/03 05:03:31;;;;;;;;;;;;;;;3.64;100.00;97667.69;5075584;28;19953;-73
2023/02/03 05:05:57;;;;;;;;;;;;;;;3.65;100.00;97674.53;5076112;28;19975;-73
2023/02/03 05:08:23;;;;;;;;;;;;;;;3.64;100.00;97683.25;5075780;28;19956;-73
2023/02/03 05:10:49;;;;;;;;;;;;;;;3.63;100.00;97692.00;5075833;28;19981;-73
2023/02/03 05:13:15;;;;;;;;;;;;;;;3.63;100.00;97678.19;5075827;28;19986;-73
2023/02/03 05:15:41;;;;;;;;;;;;;;;3.60;100.00;97692.28;5075703;28;20392;-73
2023/02/03 05:18:07;;;;;;;;;;;;;;;3.59;100.00;97687.22;5075977;28;19971;-73
2023/02/03 05:20:33;;;;;;;;;;;;;;;3.56;100.00;97688.34;5075609;28;19981;-73
2023/02/03 05:23:00;;;;;;;;;;;;;;;3.55;100.00;97685.88;5075598;28;20003;-74
2023/02/03 05:25:26;;;;;;;;;;;;;;;3.55;100.00;97698.84;5075504;28;20319;-73
2023/02/03 05:27:52;;;;;;;;;;;;;;;3.56;100.00;97688.34;5075231;28;20021;-74
2023/02/03 05:30:18;;;;;;;;;;;;;;;3.58;100.00;97699.38;5075455;28;20433;-73
2023/02/03 05:32:43;;;;;;;;;;;;;;;3.60;100.00;97699.25;5075368;28;19944;-73
2023/02/03 05:35:09;;;;;;;;;;;;;;;3.61;100.00;97700.88;5075486;28;20399;-73
2023/02/03 05:37:35;;;;;;;;;;;;;;;3.60;100.00;97702.66;5075452;28;19973;-73
2023/02/03 05:42:47;;;;;;;;;;;;;;;3.62;100.00;97718.09;5075172;28;20423;-74
2023/02/03 05:45:13;;;;;;;;;;;;;;;3.62;100.00;97718.91;5075256;28;19949;-73
2023/02/03 05:47:39;;;;;;;;;;;;;;;3.64;100.00;97716.16;5075257;28;19963;-74
2023/02/03 05:50:05;;;;;;;;;;;;;;;3.62;100.00;97723.28;5075381;28;19957;-73
2023/02/03 05:52:30;;;;;;;;;;;;;;;3.62;100.00;97718.91;5074975;28;19951;-73
2023/02/03 05:54:56;;;;;;;;;;;;;;;3.64;100.00;97716.16;5075125;28;20010;-73
2023/02/03 05:57:22;;;;;;;;;;;;;;;3.65;100.00;97710.84;5074251;28;19958;-74
2023/02/03 05:59:48;;;;;;;;;;;;;;;3.66;100.00;97709.88;5075323;28;19965;-73
2023/02/03 06:02:14;;;;;;;;;;;;;;;3.64;100.00;97703.19;5074671;28;19955;-73
2023/02/03 06:04:40;;;;;;;;;;;;;;;3.62;100.00;97697.34;5074590;28;20298;-74
2023/02/03 06:07:06;;;;;;;;;;;;;;;3.59;100.00;97706.22;5074098;28;19942;-73
2023/02/03 06:09:32;;;;;;;;;;;;;;;3.54;100.00;97699.81;5074285;28;20002;-73
2023/02/03 06:11:58;;;;;;;;;;;;;;;3.52;100.00;97699.97;5074554;28;20015;-73
2023/02/03 06:14:23;;;;;;;;;;;;;;;3.50;100.00;97701.06;5074036;28;19960;-73
2023/02/03 06:16:49;;;;;;;;;;;;;;;3.50;100.00;97703.66;5074513;28;19954;-73
2023/02/03 06:19:15;;;;;;;;;;;;;;;3.49;100.00;97702.84;5074257;28;19998;-73
2023/02/03 06:21:41;;;;;;;;;;;;;;;3.47;100.00;97704.75;5074561;28;20473;-73
2023/02/03 06:24:07;;;;;;;;;;;;;;;3.45;100.00;97706.69;5074207;28;19955;-74
2023/02/03 06:26:33;;;;;;;;;;;;;;;3.41;100.00;97692.38;5074269;28;19992;-73
2023/02/03 06:28:59;;;;;;;;;;;;;;;3.37;100.00;97681.44;5074601;28;19964;-74
2023/02/03 06:31:25;;;;;;;;;;;;;;;3.36;100.00;97676.41;5073951;28;20393;-73
2023/02/03 06:33:50;;;;;;;;;;;;;;;3.34;100.00;97673.13;5074050;28;20330;-73
2023/02/03 06:36:16;;;;;;;;;;;;;;;3.31;100.00;97676.03;5074403;28;19953;-73
2023/02/03 06:38:42;;;;;;;;;;;;;;;3.25;100.00;97667.84;5074142;28;20012;-74
2023/02/03 06:41:08;;;;;;;;;;;;;;;3.27;100.00;97662.50;5073798;28;19956;-73
2023/02/03 06:43:34;;;;;;;;;;;;;;;3.22;100.00;97670.72;5073665;28;20027;-73
2023/02/03 06:46:00;;;;;;;;;;;;;;;3.21;100.00;97684.66;5074126;28;19952;-73
2023/02/03 06:48:26;;;;;;;;;;;;;;;3.21;100.00;97684.66;5073911;28;19996;-73
2023/02/03 06:50:51;;;;;;;;;;;;;;;3.22;100.00;97698.44;5073996;28;20032;-72
2023/02/03 06:53:17;;;;;;;;;;;;;;;3.20;100.00;97702.94;5073678;28;20005;-73
2023/02/03 06:55:43;;;;;;;;;;;;;;;3.19;100.00;97696.94;5073664;28;19996;-73
2023/02/03 06:58:09;;;;;;;;;;;;;;;3.18;100.00;97695.28;5073975;28;19960;-73
2023/02/03 07:00:35;;;;;;;;;;;;;;;3.19;100.00;97683.13;5073885;28;20034;-73
2023/02/03 07:03:01;;;;;;;;;;;;;;;3.19;100.00;97675.34;5073263;28;20001;-73
2023/02/03 07:05:27;;;;;;;;;;;;;;;3.16;100.00;97666.09;5073702;28;19945;-73
2023/02/03 07:07:53;;;;;;;;;;;;;;;3.14;100.00;97672.38;5073600;28;20001;-73
2023/02/03 07:10:19;;;;;;;;;;;;;;;3.16;100.00;97665.28;5073499;28;19952;-73
2023/02/03 07:12:45;;;;;;;;;;;;;;;3.15;100.00;97672.25;5073500;28;19955;-73
2023/02/03 07:15:11;;;;;;;;;;;;;;;3.16;100.00;97673.06;5073807;28;19985;-73
2023/02/03 07:17:37;;;;;;;;;;;;;;;3.16;100.00;97660.09;5073825;28;19955;-74
2023/02/03 07:20:04;;;;;;;;;;;;;;;3.16;100.00;97665.28;5073777;28;20420;-74
2023/02/03 07:22:29;;;;;;;;;;;;;;;3.16;100.00;97660.09;5073279;28;19971;-74
2023/02/03 07:24:55;;;;;;;;;;;;;;;3.14;100.00;97656.84;5073543;28;20373;-74
2023/02/03 07:27:21;;;;;;;;;;;;;;;3.16;100.00;97673.88;5073189;28;19981;-74
2023/02/03 07:29:47;;;;;;;;;;;;;;;3.16;100.00;97673.06;5073571;28;19954;-74
2023/02/03 07:32:13;;;;;;;;;;;;;;;3.17;100.00;97672.94;5073578;28;19948;-74
2023/02/03 07:34:39;;;;;;;;;;;;;;;3.19;100.00;97665.84;5073246;28;19956;-74
2023/02/03 07:37:05;;;;;;;;;;;;;;;3.21;100.00;97665.66;5073471;28;19990;-74
2023/02/03 07:39:32;;;;;;;;;;;;;;;3.21;100.00;97661.31;5073053;28;19970;-74
2023/02/03 07:41:57;;;;;;;;;;;;;;;3.21;100.00;97655.28;5072165;28;20264;-74
2023/02/03 07:44:23;;;;;;;;;;;;;;;3.18;100.00;97660.78;5073905;28;19959;-74
2023/02/03 07:46:49;;;;;;;;;;;;;;;3.20;100.00;97653.69;5073440;28;20389;-74
2023/02/03 07:49:15;;;;;;;;;;;;;;;3.22;100.00;97659.53;5073304;28;20009;-74
2023/02/03 07:51:41;;;;;;;;;;;;;;;3.23;100.00;97667.19;5073120;28;19949;-74
2023/02/03 07:54:07;;;;;;;;;;;;;;;3.25;100.00;97664.44;5073051;28;19959;-74
2023/02/03 07:56:33;;;;;;;;;;;;;;;3.25;100.00;97675.63;5073005;28;19946;-74
2023/02/03 07:58:59;;;;;;;;;;;;;;;3.27;100.00;97688.44;5072992;28;19963;-74
2023/02/03 08:01:25;;;;;;;;;;;;;;;3.28;100.00;97695.28;5073411;28;19953;-74
2023/02/03 08:03:51;;;;;;;;;;;;;;;3.28;100.00;97699.66;5072368;28;19946;-74
2023/02/03 08:06:17;;;;;;;;;;;;;;;3.32;100.00;97708.75;5072909;28;19952;-74
2023/02/03 08:08:43;;;;;;;;;;;;;;;3.32;100.00;97695.78;5073116;28;19952;-74
2023/02/03 08:11:09;;;;;;;;;;;;;;;3.34;100.00;97709.44;5072871;28;20435;-74
2023/02/03 08:13:35;;;;;;;;;;;;;;;3.35;100.00;97717.06;5072879;28;19955;-75
2023/02/03 08:16:01;;;;;;;;;;;;;;;3.39;100.00;97740.97;5072946;28;19939;-75
2023/02/03 08:18:27;;;;;;;;;;;;;;;3.41;100.00;97728.66;5072876;28;19974;-74
2023/02/03 08:20:53;;;;;;;;;;;;;;;3.43;100.00;97737.94;5072898;28;19959;-74
2023/02/03 08:23:19;;;;;;;;;;;;;;;3.45;100.00;97730.84;5071680;28;19959;-74
2023/02/03 08:25:49;;;;;;;;;;;;;;;3.49;100.00;97722.78;5072878;28;20006;-74
2023/02/03 08:28:15;;;;;;;;;;;;;;;3.53;100.00;97726.69;5073007;28;19959;-75
2023/02/03 08:30:41;;;;;;;;;;;;;;;3.54;100.00;97729.16;5072950;28;19952;-74
2023/02/03 08:33:07;;;;;;;;;;;;;;;3.57;100.00;97715.94;5072954;28;20392;-75
2023/02/03 08:35:33;;;;;;;;;;;;;;;3.60;100.00;97723.41;5105885;28;20007;-75
2023/02/03 08:37:59;;;;;;;;;;;;;;;3.63;100.00;97736.13;5072975;28;19942;-74
2023/02/03 08:40:24;;;;;;;;;;;;;;;3.63;100.00;97735.28;5076468;28;19967;-75
2023/02/03 08:42:50;;;;;;;;;;;;;;;3.64;100.00;97732.53;5076315;28;19969;-74
2023/02/03 08:45:16;;;;;;;;;;;;;;;3.69;100.00;97747.69;5076316;28;19953;-74
2023/02/03 08:47:42;;;;;;;;;;;;;;;3.71;100.00;97737.97;5076110;28;20013;-75
2023/02/03 08:50:08;;;;;;;;;;;;;;;3.73;100.00;97735.25;5075209;28;20039;-75
2023/02/03 08:52:34;;;;;;;;;;;;;;;3.75;100.00;97741.13;5076503;28;20308;-75
2023/02/03 08:55:00;;;;;;;;;;;;;;;3.77;100.00;97755.56;5076149;28;19950;-74
2023/02/03 08:57:26;;;;;;;;;;;;;;;3.80;100.00;97764.84;5076017;28;20002;-74
2023/02/03 08:59:53;;;;;;;;;;;;;;;3.83;100.00;97764.56;5076085;28;20376;-74
2023/02/03 09:02:19;;;;;;;;;;;;;;;3.85;100.00;97760.06;5076091;28;20391;-74
2023/02/03 09:04:45;;;;;;;;;;;;;;;3.87;100.00;97752.94;5076067;28;19946;-74
2023/02/03 09:07:12;;;;;;;;;;;;;;;3.89;100.00;97739.84;5076141;28;19942;-74
2023/02/03 09:09:38;;;;;;;;;;;;;;;3.89;100.00;97743.25;5076057;28;19944;-74
2023/02/03 09:12:05;;;;;;;;;;;;;;;3.91;100.00;97749.09;5075868;28;20326;-74
2023/02/03 09:14:32;;;;;;;;;;;;;;;3.92;100.00;97750.72;5075598;28;19944;-73
2023/02/03 09:16:58;;;;;;;;;;;;;;;3.95;100.00;97754.81;5075732;28;20319;-74
2023/02/03 09:19:24;;;;;;;;;;;;;;;3.97;100.00;97740.75;5075474;28;20327;-74
2023/02/03 09:21:50;;;;;;;;;;;;;;;3.97;100.00;97724.34;5075684;28;19943;-74
2023/02/03 09:24:16;;;;;;;;;;;;;;;4.01;100.00;97723.94;5075927;28;20388;-74
2023/02/03 09:26:43;;;;;;;;;;;;;;;4.10;100.00;97716.25;5075611;28;19949;-74
2023/02/03 09:29:09;;;;;;;;;;;;;;;4.16;100.00;97716.47;5075755;28;20073;-74
2023/02/03 09:31:35;;;;;;;;;;;;;;;4.23;100.00;97719.28;5075289;28;19956;-74
2023/02/03 09:34:01;;;;;;;;;;;;;;;4.33;100.00;97721.84;5075455;28;19950;-74
2023/02/03 09:36:27;;;;;;;;;;;;;;;4.37;100.00;97718.78;5075491;28;19952;-74
2023/02/03 09:38:52;;;;;;;;;;;;;;;4.40;100.00;97720.28;5075323;28;19968;-74
2023/02/03 09:41:37;;;;;;;;;;;;;;;4.42;100.00;97736.53;5075267;28;20001;-74
2023/02/03 09:44:12;;;;;;;;;;;;;;;4.43;100.00;97736.38;5075140;28;19949;-74
2023/02/03 09:46:44;;;;;;;;;;;;;;;4.45;100.00;97739.66;5075211;28;20323;-74
2023/02/03 09:49:23;;;;;;;;;;;;;;;4.47;100.00;97729.09;5074418;28;19948;-74
2023/02/03 09:51:49;;;;;;;;;;;;;;;4.59;100.00;97724.50;5074790;28;20425;-73
2023/02/03 09:54:20;;;;;;;;;;;;;;;5.10;100.00;97720.38;5075030;28;19947;-75
2023/02/03 09:56:51;;;;;;;;;;;;;;;5.37;100.00;97724.63;5061629;28;19944;-74
2023/02/03 09:59:18;;;;;;;;;;;;;;;5.34;100.00;97734.53;5074716;28;19964;-74
2023/02/03 10:01:47;;;;;;;;;;;;;;;5.24;100.00;97729.41;5074672;28;20333;-74
2023/02/03 10:04:26;;;;;;;;;;;;;;;5.09;100.00;97731.75;5075000;28;19948;-75
2023/02/03 10:07:02;;;;;;;;;;;;;;;4.99;100.00;97728.44;5074684;28;19957;-73
2023/02/03 10:09:36;;;;;;;;;;;;;;;4.88;100.00;97738.09;5073394;28;19954;-74
2023/02/03 10:12:20;;;;;;;;;;;;;;;4.80;100.00;97725.03;5074636;28;19954;-74
2023/02/03 10:15:05;;;;;;;;;;;;;;;4.78;100.00;97726.94;5074438;28;19949;-74
2023/02/03 10:17:42;;;;;;;;;;;;;;;4.78;100.00;97723.53;5074580;28;19948;-74
2023/02/03 10:20:07;;;;;;;;;;;;;;;4.79;100.00;97717.41;5074632;28;19966;-74
2023/02/03 10:22:38;;;;;;;;;;;;;;;4.80;100.00;97719.81;5074452;28;19943;-74
2023/02/03 10:25:04;;;;;;;;;;;;;;;4.83;100.00;97713.50;5074541;28;19948;-74
2023/02/03 10:27:31;;;;;;;;;;;;;;;4.86;100.00;97695.03;5074401;28;19996;-74
2023/02/03 10:30:00;;;;;;;;;;;;;;;4.89;100.00;97699.91;5074318;28;19942;-74
2023/02/03 10:32:26;;;;;;;;;;;;;;;4.93;100.00;97714.25;5073730;28;19946;-74
2023/02/03 10:34:52;;;;;;;;;;;;;;;4.95;100.00;97719.28;5074573;28;19951;-74
2023/02/03 10:37:35;;;;;;;;;;;;;;;4.98;100.00;97725.00;5074250;28;19955;-74
2023/02/03 10:40:02;;;;;;;;;;;;;;;5.01;100.00;97727.31;5074312;28;19964;-73
2023/02/03 10:43:46;;;;;;;;;;;;;;;5.05;100.00;97720.84;5073962;28;20442;-74
2023/02/03 10:45:16;;;;;;;;;;;;;;;5.07;100.00;97718.09;5073933;28;19953;-74
2023/02/03 10:47:45;;;;;;;;;;;;;;;5.11;100.00;97723.81;5073735;28;19957;-74
2023/02/03 10:50:15;;;;;;;;;;;;;;;5.13;100.00;97737.47;5072940;28;19958;-74
2023/02/03 10:52:41;;;;;;;;;;;;;;;5.18;100.00;97735.22;5073745;28;19942;-74
2023/02/03 10:55:27;;;;;;;;;;;;;;;5.21;100.00;97729.75;5073869;28;20030;-74
2023/02/03 10:57:54;;;;;;;;;;;;;;;5.23;100.00;97720.00;5073639;28;19943;-74
2023/02/03 11:00:27;;;;;;;;;;;;;;;5.25;100.00;97718.06;5073729;28;19979;-73
2023/02/03 11:02:54;;;;;;;;;;;;;;;5.24;100.00;97700.81;5073794;28;19951;-74
2023/02/03 11:05:21;;;;;;;;;;;;;;;5.22;100.00;97681.94;5072451;28;19955;-74
2023/02/03 11:07:47;;;;;;;;;;;;;;;5.24;100.00;97673.00;5073659;28;19956;-74
2023/02/03 11:10:25;;;;;;;;;;;;;;;5.33;100.00;97670.47;5073756;28;19953;-74
2023/02/03 11:12:51;;;;;;;;;;;;;;;5.37;100.00;97656.97;5073693;28;19970;-75
2023/02/03 11:15:17;;;;;;;;;;;;;;;5.42;100.00;97670.38;5073538;28;19953;-74
2023/02/03 11:17:43;;;;;;;;;;;;;;;5.49;100.00;97663.56;5073526;28;19979;-74
2023/02/03 11:20:14;;;;;;;;;;;;;;;5.56;100.00;97653.34;5071916;28;19965;-74
2023/02/03 11:22:41;;;;;;;;;;;;;;;5.62;100.00;97657.91;5073028;28;19942;-74
2023/02/03 11:25:34;;;;;;;;;;;;;;;5.67;100.00;97654.88;5073044;28;20319;-74
2023/02/03 11:28:04;;;;;;;;;;;;;;;5.70;100.00;97659.75;5056162;28;19947;-74
2023/02/03 11:30:30;;;;;;;;;;;;;;;5.75;100.00;97648.84;5072494;28;19944;-74
2023/02/03 11:32:59;;;;;;;;;;;;;;;5.81;100.00;97651.63;5073221;28;20004;-74
2023/02/03 11:35:26;;;;;;;;;;;;;;;5.81;100.00;97653.44;5073311;28;19954;-74
2023/02/03 11:37:56;;;;;;;;;;;;;;;5.81;100.00;97650.84;5073180;28;19948;-74
2023/02/03 11:40:29;;;;;;;;;;;;;;;5.75;100.00;97636.66;5073766;28;19966;-74
2023/02/03 11:42:55;;;;;;;;;;;;;;;5.71;100.00;97645.75;5072875;28;20432;-75
2023/02/03 11:45:40;;;;;;;;;;;;;;;5.70;100.00;97649.34;5073074;28;20045;-76
2023/02/03 11:48:09;;;;;;;;;;;;;;;5.71;100.00;97643.13;5073099;28;20322;-74
2023/02/03 11:50:36;;;;;;;;;;;;;;;5.72;100.00;97639.59;5073335;28;19947;-73
2023/02/03 11:53:05;;;;;;;;;;;;;;;5.71;100.00;97653.56;5073041;28;19944;-74
2023/02/03 11:55:52;;;;;;;;;;;;;;;5.70;100.00;97647.53;5072987;28;19953;-74
2023/02/03 11:58:36;;;;;;;;;;;;;;;5.72;100.00;97655.19;5072969;28;19952;-74
2023/02/03 12:01:23;;;;;;;;;;;;;;;5.72;100.00;97665.59;5072921;28;19971;-74
2023/02/03 12:04:12;;;;;;;;;;;;;;;5.70;100.00;97663.16;5073095;28;19976;-74
2023/02/03 12:06:57;;;;;;;;;;;;;;;5.69;100.00;97643.31;5072874;28;19953;-74
2023/02/03 12:09:32;;;;;;;;;;;;;;;5.62;100.00;97637.09;5073157;28;19957;-75
2023/02/03 12:12:05;;;;;;;;;;;;;;;5.60;100.00;97640.84;5059029;28;20337;-75
2023/02/03 12:14:42;;;;;;;;;;;;;;;5.63;100.00;97645.75;5075816;28;19949;-74
2023/02/03 12:17:17;;;;;;;;;;;;;;;5.63;100.00;97637.94;5077145;28;19949;-74
2023/02/03 12:19:59;;;;;;;;;;;;;;;5.64;100.00;97627.34;5076746;28;20428;-74
2023/02/03 12:22:31;;;;;;;;;;;;;;;5.65;100.00;97631.59;5076710;28;19960;-74
2023/02/03 12:25:15;;;;;;;;;;;;;;;5.68;100.00;97636.47;5076731;28;19945;-74
2023/02/03 12:27:52;;;;;;;;;;;;;;;5.69;100.00;97624.25;5062357;28;20404;-74
2023/02/03 12:30:21;;;;;;;;;;;;;;;5.71;100.00;97630.13;5076572;28;19942;-74
2023/02/03 12:32:47;;;;;;;;;;;;;;;5.69;100.00;97625.09;5075444;28;19954;-74
2023/02/03 12:35:13;;;;;;;;;;;;;;;5.69;100.00;97637.28;5076313;28;19955;-74
2023/02/03 12:37:57;;;;;;;;;;;;;;;5.66;100.00;97641.00;5076787;28;20001;-74
2023/02/03 12:40:32;;;;;;;;;;;;;;;5.64;100.00;97647.34;5064072;28;19967;-74
2023/02/03 12:43:01;;;;;;;;;;;;;;;5.65;100.00;97655.00;5076159;28;19973;-74
2023/02/03 12:45:29;;;;;;;;;;;;;;;5.64;99.88;97627.34;5076119;28;19959;-74
2023/02/03 12:48:05;;;;;;;;;;;;;;;5.60;100.00;97631.22;5076356;28;19956;-74
2023/02/03 12:50:35;;;;;;;;;;;;;;;5.57;100.00;97610.75;5076362;28;19949;-74
2023/02/03 12:53:09;;;;;;;;;;;;;;;5.57;100.00;97612.53;5076496;28;20312;-74
2023/02/03 12:55:40;;;;;;;;;;;;;;;5.55;100.00;97623.09;5076331;28;19947;-73
2023/02/03 12:58:10;;;;;;;;;;;;;;;5.53;100.00;97624.22;5075853;28;19954;-74